Queen Elizabeth — ZCEF2 — position and weather

sailwx.info

Track history (hours):
 
Tides and Currents Weather Stations Pressure Air Temp Water Temp Dewpoint Dewpoint Depression Visibility Wind Speed Wind Dir Waves Ship Positions

Queen Elizabeth

Last reported at 2018-Sep-24 18:21 UTC. Time now 2018-Sep-24 21:00 UTC.
Position N 36°32' W 001°42'.

Length 294 m; draft 8 m.

Type: Passenger vessel. MMSI: 310625000.

Date/timePositionNaut miles runAvg speedWind from/ knotsBaromVisibWave heightAir tempDewpointWater temp
2018-Sep-24 18:21N 36°32' W 001°42'618.2
2018-Sep-24 18:02N 36°33' W 001°35'218.5
2018-Sep-24 17:56N 36°34' W 001°33'1218.7
2018-Sep-24 17:16N 36°37' W 001°18'719.1
2018-Sep-24 16:53N 36°39' W 001°09'920.8
2018-Sep-24 16:27N 36°41' W 000°59'820.8
2018-Sep-24 16:03N 36°43' W 000°48'121.2
2018-Sep-24 15:59N 36°43' W 000°47'1121.2
2018-Sep-24 15:29N 36°46' W 000°34'921.1
2018-Sep-24 15:03N 36°48' W 000°23'121.2
2018-Sep-24 15:00N 36°49' W 000°21'2121.6
2018-Sep-24 14:02N 36°54' E 000°04'121.3
2018-Sep-24 14:00N 36°54' E 000°05'1121.2
2018-Sep-24 13:30N 36°57' E 000°17'921.3
2018-Sep-24 13:03N 36°59' E 000°29'120.9
2018-Sep-24 13:00N 36°59' E 000°30'1020.9
2018-Sep-24 12:30N 37°02' E 000°43'1020.7
2018-Sep-24 12:01N 37°04' E 000°55'021.2
2018-Sep-24 12:00N 37°04' E 000°55'1020.9
2018-Sep-24 11:30N 37°07' E 001°08'1021.0
2018-Sep-24 11:03N 37°09' E 001°20'120.7
2018-Sep-24 11:00N 37°10' E 001°21'1120.9
2018-Sep-24 10:30N 37°12' E 001°34'920.9
2018-Sep-24 10:03N 37°14' E 001°45'121.0
2018-Sep-24 10:00N 37°15' E 001°46'1121.0
2018-Sep-24 09:30N 37°17' E 001°59'920.9
2018-Sep-24 09:03N 37°20' E 002°11'120.7
2018-Sep-24 09:00N 37°20' E 002°12'162959.0
2018-Sep-24 09:00N 37°12' E 001°54'2753.8 1021.810.8 25.023.526.0
2018-Sep-24 08:30N 37°23' E 002°25'1020.7
2018-Sep-24 08:01N 37°25' E 002°37'020.8
2018-Sep-24 08:00N 37°25' E 002°37'1020.6
2018-Sep-24 07:30N 37°28' E 002°50'1020.1
2018-Sep-24 07:02N 37°30' E 003°01'019.7
2018-Sep-24 07:00N 37°30' E 003°02'1019.9
2018-Sep-24 06:30N 37°33' E 003°14'1120.1
2018-Sep-24 05:58N 37°35' E 003°27'16718.6
2018-Sep-23 21:00N 38°12' E 006°54'26711.6 1021.010.8 25.020.427.0
2018-Sep-22 22:00N 39°54' E 012°12'8119.9 250 / 41019.110.8 25.022.027.0
2018-Sep-22 17:54N 40°28' E 013°48'820.7
2018-Sep-22 17:30N 40°32' E 013°58'920.3
2018-Sep-22 17:03N 40°36' E 014°09'119.4
2018-Sep-22 17:00N 40°37' E 014°10'917.3
2018-Sep-22 16:30N 40°39' E 014°21'2 3.5
2018-Sep-22 16:03N 40°39' E 014°23'0 0.2
2018-Sep-22 16:00N 40°39' E 014°23'0 0.0
2018-Sep-22 15:30N 40°39' E 014°23'0 0.0
2018-Sep-22 15:03N 40°39' E 014°23'0 0.0
2018-Sep-22 15:00N 40°39' E 014°23'0 0.0
2018-Sep-22 14:30N 40°39' E 014°23'0 0.0
2018-Sep-22 14:00N 40°39' E 014°23'0 0.0
2018-Sep-22 13:30N 40°39' E 014°23'0 0.0
2018-Sep-22 13:03N 40°39' E 014°23'0 0.0
2018-Sep-22 13:00N 40°39' E 014°23'0 0.0
2018-Sep-22 12:30N 40°39' E 014°23'0 0.0
2018-Sep-22 12:03N 40°39' E 014°23'0 0.0
2018-Sep-22 12:00N 40°39' E 014°23'0 0.0
2018-Sep-22 11:30N 40°39' E 014°23'0 0.0
2018-Sep-22 11:03N 40°39' E 014°23'0 0.0
2018-Sep-22 11:00N 40°39' E 014°23'0 0.0
2018-Sep-22 10:30N 40°39' E 014°23'0 0.0
2018-Sep-22 10:03N 40°39' E 014°23'0 0.0
2018-Sep-22 10:00N 40°39' E 014°23'0 0.0
2018-Sep-22 09:30N 40°39' E 014°23'0 0.0
2018-Sep-22 09:03N 40°39' E 014°23'0 0.0
2018-Sep-22 09:00N 40°39' E 014°23'0 0.0
2018-Sep-22 08:30N 40°39' E 014°23'0 0.0
2018-Sep-22 08:03N 40°39' E 014°23'0 0.0
2018-Sep-22 08:00N 40°39' E 014°23'0 0.0
2018-Sep-22 07:30N 40°39' E 014°23'0 0.0
2018-Sep-22 07:01N 40°39' E 014°23'0 0.0
2018-Sep-22 07:00N 40°39' E 014°23'0 0.0
2018-Sep-22 06:30N 40°39' E 014°23'0 0.0
2018-Sep-22 06:03N 40°39' E 014°23'0 0.0
2018-Sep-22 06:00N 40°39' E 014°23'0 0.0
2018-Sep-22 05:30N 40°39' E 014°23'0 0.0
2018-Sep-22 05:03N 40°39' E 014°23'0 1.2
2018-Sep-22 04:59N 40°39' E 014°23'510.0
2018-Sep-22 04:30N 40°39' E 014°16'714.8
2018-Sep-22 04:03N 40°38' E 014°08'114.2
2018-Sep-22 04:00N 40°38' E 014°07'714.4
2018-Sep-22 03:31N 40°38' E 013°57'614.4
2018-Sep-22 03:04N 40°38' E 013°49'114.3
2018-Sep-22 03:00N 40°38' E 013°48'714.4
2018-Sep-22 02:31N 40°38' E 013°38'714.4
2018-Sep-22 02:02N 40°38' E 013°29'015.0
2018-Sep-22 02:00N 40°38' E 013°29'814.8
2018-Sep-22 01:29N 40°41' E 013°19'914.9
2018-Sep-22 00:52N 40°44' E 013°07'615.9
2018-Sep-22 00:30N 40°45' E 013°00'4512.9
2018-Sep-21 21:00N 41°12' E 012°12'77 4.0 1016.810.8 24.021.026.0
2018-Sep-21 01:52N 42°03' E 010°55'720.3
2018-Sep-21 01:30N 42°05' E 010°46'1120.5
2018-Sep-21 00:57N 42°08' E 010°31'920.4
2018-Sep-21 00:30N 42°11' E 010°20'920.5
2018-Sep-21 00:03N 42°14' E 010°08'120.8
2018-Sep-21 00:00N 42°14' E 010°06'1019.6
2018-Sep-20 23:30N 42°21' E 009°57'921.2
2018-Sep-20 23:03N 42°30' E 009°52'121.0
2018-Sep-20 23:00N 42°31' E 009°51'1121.0
2018-Sep-20 22:30N 42°40' E 009°45'920.1
2018-Sep-20 22:03N 42°48' E 009°40'119.7
2018-Sep-20 22:00N 42°49' E 009°40'1019.9
2018-Sep-20 21:30N 42°59' E 009°36'919.0
2018-Sep-20 21:03N 43°07' E 009°32'120.5
2018-Sep-20 21:00N 43°07' E 009°31'83952092.9
2018-Sep-20 21:00N 42°48' W 009°36'8291713.0 1016.510.8 24.021.027.0
2018-Sep-20 20:30N 43°10' E 009°17'921.0
2018-Sep-20 20:03N 43°12' E 009°04'121.2
2018-Sep-20 20:00N 43°12' E 009°03'1020.9
2018-Sep-20 19:30N 43°16' E 008°49'920.7
2018-Sep-20 19:03N 43°19' E 008°37'120.7
2018-Sep-20 19:00N 43°20' E 008°36'1020.8
2018-Sep-20 18:30N 43°23' E 008°23'1020.8
2018-Sep-20 18:03N 43°27' E 008°10'120.9
2018-Sep-20 18:00N 43°27' E 008°09'1020.7
2018-Sep-20 17:30N 43°29' E 007°55'920.3
2018-Sep-20 17:03N 43°32' E 007°43'120.1
2018-Sep-20 17:00N 43°33' E 007°42'1020.0
2018-Sep-20 16:30N 43°36' E 007°29'818.3
2018-Sep-20 16:04N 43°40' E 007°19'110.2
2018-Sep-20 16:00N 43°40' E 007°19'1 1.0
2018-Sep-20 15:30N 43°41' E 007°19'0 0.0
2018-Sep-20 15:03N 43°41' E 007°19'0 0.0
2018-Sep-20 15:00N 43°41' E 007°19'0 0.0
2018-Sep-20 14:30N 43°41' E 007°19'0 0.0
2018-Sep-20 14:01N 43°41' E 007°19'0 0.1
2018-Sep-20 13:29N 43°41' E 007°19'0 0.1
2018-Sep-20 13:04N 43°41' E 007°19'0 0.0
2018-Sep-20 13:01N 43°41' E 007°19'0 0.0
2018-Sep-20 12:30N 43°41' E 007°19'0 0.0
2018-Sep-20 12:04N 43°41' E 007°19'0 0.0
2018-Sep-20 12:01N 43°41' E 007°19'0 0.0
2018-Sep-20 11:30N 43°41' E 007°19'0 0.0
2018-Sep-20 11:04N 43°41' E 007°19'0 0.0
2018-Sep-20 11:01N 43°41' E 007°19'0 0.0
2018-Sep-20 10:31N 43°41' E 007°19'0 0.0
2018-Sep-20 10:03N 43°41' E 007°19'0 0.0
2018-Sep-20 10:00N 43°41' E 007°19'0 0.0
2018-Sep-20 09:31N 43°41' E 007°19'0 0.0
2018-Sep-20 09:04N 43°41' E 007°19'0 0.0
2018-Sep-20 09:01N 43°41' E 007°19'0 0.0
2018-Sep-20 08:31N 43°41' E 007°19'0 0.0
2018-Sep-20 08:04N 43°41' E 007°19'0 0.0
2018-Sep-20 08:01N 43°41' E 007°19'0 0.0
2018-Sep-20 07:31N 43°41' E 007°19'0 0.0
2018-Sep-20 07:04N 43°41' E 007°19'0 0.0
2018-Sep-20 07:00N 43°41' E 007°19'0 0.0
2018-Sep-20 06:30N 43°41' E 007°19'0 0.2
2018-Sep-20 06:04N 43°41' E 007°19'0 0.2
2018-Sep-20 06:01N 43°41' E 007°19'0 0.0
2018-Sep-20 05:30N 43°41' E 007°19'4 8.5
2018-Sep-20 05:04N 43°37' E 007°19'115.5
2018-Sep-20 05:01N 43°36' E 007°18'917.5
2018-Sep-20 04:30N 43°28' E 007°13'919.2
2018-Sep-20 04:03N 43°22' E 007°05'119.3
2018-Sep-20 04:00N 43°21' E 007°05'1019.2
2018-Sep-20 03:31N 43°14' E 006°56'919.3
2018-Sep-20 03:04N 43°07' E 006°48'119.3
2018-Sep-20 03:00N 43°07' E 006°47'1019.3
2018-Sep-20 02:30N 42°60' E 006°38'919.2
2018-Sep-20 02:03N 42°55' E 006°28'119.6
2018-Sep-20 02:01N 42°55' E 006°27'1319.2
2018-Sep-20 01:19N 42°49' E 006°11'519.2
2018-Sep-20 01:03N 42°46' E 006°04'119.1
2018-Sep-20 01:01N 42°46' E 006°04'1019.3
2018-Sep-20 00:30N 42°41' E 005°52'919.4
2018-Sep-20 00:03N 42°37' E 005°42'119.4
2018-Sep-20 00:00N 42°36' E 005°40'1019.4
2018-Sep-19 23:30N 42°32' E 005°29'919.4
2018-Sep-19 23:03N 42°28' E 005°18'119.2
2018-Sep-19 23:00N 42°28' E 005°17'1019.1
2018-Sep-19 22:30N 42°23' E 005°06'919.0
2018-Sep-19 22:02N 42°19' E 004°55'119.0
2018-Sep-19 22:00N 42°19' E 004°54'111618.2
2018-Sep-19 22:00N 42°12' E 004°42'3 5.7 290 / 71020.427.0 23.021.526.0
2018-Sep-19 21:31N 42°15' E 004°42'919.8
2018-Sep-19 21:03N 42°10' E 004°32'119.8
2018-Sep-19 21:01N 42°09' E 004°31'4420.8
2018-Sep-19 18:55N 41°49' E 003°39'5120.4
2018-Sep-19 16:25N 41°25' E 002°39'720.3
2018-Sep-19 16:04N 41°22' E 002°31'120.1
2018-Sep-19 16:01N 41°21' E 002°29'1020.2
2018-Sep-19 15:30N 41°17' E 002°17'612.3
2018-Sep-19 15:03N 41°18' E 002°10'011.4
2018-Sep-19 15:01N 41°19' E 002°10'2 1.6
2018-Sep-19 13:29N 41°21' E 002°10'0 0.0
2018-Sep-19 13:02N 41°21' E 002°10'0 0.0
2018-Sep-19 12:59N 41°21' E 002°10'0 0.0
2018-Sep-19 12:29N 41°21' E 002°10'0 0.0
2018-Sep-19 12:02N 41°21' E 002°10'0 0.0
2018-Sep-19 11:56N 41°21' E 002°10'0 0.0
2018-Sep-19 11:29N 41°21' E 002°10'0 0.0
2018-Sep-19 11:02N 41°21' E 002°10'0 0.0
2018-Sep-19 10:59N 41°21' E 002°10'0 0.0
2018-Sep-19 10:29N 41°21' E 002°10'2 0.3
2018-Sep-19 04:55N 41°19' E 002°10'512.0
2018-Sep-19 04:30N 41°14' E 002°11'715.2
2018-Sep-19 04:03N 41°08' E 002°08'115.2
2018-Sep-19 04:00N 41°08' E 002°07'815.4
2018-Sep-19 03:30N 41°01' E 002°02'715.8
2018-Sep-19 03:03N 40°55' E 001°58'116.0
2018-Sep-19 03:00N 40°54' E 001°57'8714.5
2018-Sep-18 21:00N 39°36' E 001°06'9817.8 1018.410.8 25.022.027.0
2018-Sep-18 15:30N 38°12' E 000°02'816.8
2018-Sep-18 15:02N 38°05' W 000°03'016.7
2018-Sep-18 15:00N 38°05' W 000°04'1816.6
2018-Sep-18 13:57N 37°50' W 000°16'716.4
2018-Sep-18 13:30N 37°44' W 000°21'715.9
2018-Sep-18 13:03N 37°38' W 000°26'116.3
2018-Sep-18 13:00N 37°38' W 000°27'816.5
2018-Sep-18 12:30N 37°31' W 000°34'816.8
2018-Sep-18 12:03N 37°26' W 000°41'116.7
2018-Sep-18 12:00N 37°25' W 000°42'816.4
2018-Sep-18 11:30N 37°20' W 000°49'716.2
2018-Sep-18 11:03N 37°15' W 000°56'116.2
2018-Sep-18 10:59N 37°15' W 000°57'816.3
2018-Sep-18 10:30N 37°09' W 001°05'19815.9
2018-Sep-17 22:02N 36°01' W 004°56'117.9
2018-Sep-17 21:58N 36°01' W 004°57'918.4
2018-Sep-17 21:28N 36°00' W 005°09'818.6
2018-Sep-17 21:03N 35°59' W 005°18'118.4
2018-Sep-17 21:00N 35°59' W 005°19'7457.5
2018-Sep-17 21:00N 35°54' W 005°12'1630.2 090 / 35
2018-Sep-17 20:28N 35°57' W 005°31'51 5.6
2018-Sep-17 11:21N 36°32' W 006°17'0 0.0
2018-Sep-17 11:03N 36°32' W 006°17'0 0.0
2018-Sep-17 11:00N 36°32' W 006°17'0 0.0
2018-Sep-17 10:27N 36°32' W 006°17'0 0.0
2018-Sep-17 09:57N 36°32' W 006°17'0 0.0
2018-Sep-17 09:30N 36°32' W 006°17'0 0.0
2018-Sep-17 09:00N 36°32' W 006°17'0 0.0
2018-Sep-17 08:30N 36°32' W 006°17'0 0.0
2018-Sep-17 08:03N 36°32' W 006°17'0 0.0
2018-Sep-17 08:00N 36°32' W 006°17'0 0.0
2018-Sep-17 07:24N 36°32' W 006°17'0 0.0
2018-Sep-17 07:03N 36°32' W 006°17'0 0.0
2018-Sep-17 07:00N 36°32' W 006°17'0 0.0
2018-Sep-17 06:27N 36°32' W 006°17'0 0.0
2018-Sep-17 06:03N 36°32' W 006°17'0 0.0
2018-Sep-17 06:00N 36°32' W 006°17'0 1.0
2018-Sep-17 05:30N 36°32' W 006°17'2 4.1
2018-Sep-17 05:03N 36°34' W 006°18'1 8.7
2018-Sep-17 05:00N 36°34' W 006°19'713.6
2018-Sep-17 04:30N 36°34' W 006°27'715.5
2018-Sep-17 04:03N 36°34' W 006°36'114.0
2018-Sep-17 04:00N 36°34' W 006°37'6115.1
2018-Sep-16 23:58N 36°32' W 007°53'918.6
2018-Sep-16 23:30N 36°32' W 008°04'818.7
2018-Sep-16 23:03N 36°32' W 008°14'119.1
2018-Sep-16 23:00N 36°32' W 008°15'918.8
2018-Sep-16 22:30N 36°30' W 008°27'818.5
2018-Sep-16 22:03N 36°31' W 008°37'118.4
2018-Sep-16 22:00N 36°31' W 008°38'8599.2
2018-Sep-16 22:00N 36°30' W 008°48'1 2.9 350 / 191017.410.8 21.021.023.0
2018-Sep-16 21:31N 36°31' W 008°49'818.3
2018-Sep-16 21:04N 36°31' W 008°60'118.2
2018-Sep-16 21:01N 36°31' W 009°01'1018.5
2018-Sep-16 20:29N 36°33' W 009°13'917.6
2018-Sep-16 19:57N 36°38' W 009°22'1118.7
2018-Sep-16 19:22N 36°46' W 009°31'618.3
2018-Sep-16 19:04N 36°51' W 009°34'118.5
2018-Sep-16 19:01N 36°52' W 009°35'918.5
2018-Sep-16 18:31N 37°01' W 009°37'919.0
2018-Sep-16 18:04N 37°09' W 009°39'118.9
2018-Sep-16 18:00N 37°10' W 009°40'918.9
2018-Sep-16 17:31N 37°20' W 009°42'818.8
2018-Sep-16 17:03N 37°28' W 009°45'118.8
2018-Sep-16 17:00N 37°29' W 009°45'918.8
2018-Sep-16 16:31N 37°38' W 009°48'918.9
2018-Sep-16 16:03N 37°46' W 009°50'118.8
2018-Sep-16 16:01N 37°47' W 009°50'918.6
2018-Sep-16 15:31N 37°56' W 009°53'818.5
2018-Sep-16 15:04N 38°04' W 009°55'118.9
2018-Sep-16 15:00N 38°05' W 009°55'1019.2
2018-Sep-16 14:31N 38°15' W 009°58'2120.9
2018-Sep-16 13:31N 38°35' W 010°04'920.6
2018-Sep-16 13:04N 38°44' W 010°05'120.4
2018-Sep-16 13:01N 38°45' W 010°05'1020.7
2018-Sep-16 12:30N 38°56' W 010°05'921.1
2018-Sep-16 12:03N 39°05' W 010°05'121.1
2018-Sep-16 12:01N 39°06' W 010°05'1020.8
2018-Sep-16 11:31N 39°17' W 010°05'920.5
2018-Sep-16 11:04N 39°26' W 010°05'120.9
2018-Sep-16 11:00N 39°27' W 010°05'1020.6
2018-Sep-16 10:30N 39°37' W 010°05'920.8
2018-Sep-16 10:03N 39°46' W 010°05'121.0
2018-Sep-16 10:00N 39°48' W 010°05'1020.8
2018-Sep-16 09:31N 39°58' W 010°04'920.7
2018-Sep-16 09:03N 40°07' W 010°04'120.7
2018-Sep-16 09:00N 40°08' W 010°04'1020.6
2018-Sep-16 08:30N 40°19' W 010°04'920.6
2018-Sep-16 08:03N 40°28' W 010°05'121.3
2018-Sep-16 08:00N 40°29' W 010°05'1121.0
2018-Sep-16 07:30N 40°39' W 010°05'920.9
2018-Sep-16 07:03N 40°49' W 010°05'120.7
2018-Sep-16 07:01N 40°50' W 010°05'1020.5
2018-Sep-16 06:31N 41°00' W 010°05'920.8
2018-Sep-16 06:03N 41°09' W 010°05'121.0
2018-Sep-16 06:01N 41°10' W 010°05'1120.7
2018-Sep-16 05:30N 41°21' W 010°04'920.7
2018-Sep-16 05:03N 41°30' W 010°05'619.9
2018-Sep-16 04:45N 41°36' W 010°05'917.1
2018-Sep-16 04:13N 41°45' W 010°05'320.5
2018-Sep-16 04:03N 41°49' W 010°06'221.1
2018-Sep-16 03:58N 41°51' W 010°06'17425.0
2018-Sep-15 21:00N 44°42' W 009°24'7915.7 150 / 81021.610.8 20.013.021.0
2018-Sep-15 16:00N 45°42' W 008°12'12319.4 150 / 81025.610.8 20.013.021.0
2018-Sep-15 09:38N 47°32' W 006°51'820.8
2018-Sep-15 09:16N 47°39' W 006°46'420.5
2018-Sep-15 09:03N 47°43' W 006°42'119.8
2018-Sep-15 09:00N 47°43' W 006°42'2219.9
2018-Sep-15 07:54N 48°03' W 006°28'919.7
2018-Sep-15 07:26N 48°12' W 006°23'819.5
2018-Sep-15 07:03N 48°19' W 006°18'119.1
2018-Sep-15 07:00N 48°20' W 006°18'2619.1
2018-Sep-15 05:38N 48°43' W 005°59'1119.0
2018-Sep-15 05:02N 48°53' W 005°51'419.0
2018-Sep-15 04:50N 48°55' W 005°47'619.2
2018-Sep-15 04:31N 48°59' W 005°39'919.4
2018-Sep-15 04:04N 49°03' W 005°27'119.7
2018-Sep-15 04:00N 49°04' W 005°26'1019.8
2018-Sep-15 03:30N 49°09' W 005°13'920.7
2018-Sep-15 03:03N 49°14' W 005°01'320.6
2018-Sep-15 02:55N 49°15' W 004°57'1020.8
2018-Sep-15 02:26N 49°20' W 004°44'820.9
2018-Sep-15 02:03N 49°24' W 004°33'220.9
2018-Sep-15 01:57N 49°25' W 004°31'920.9
2018-Sep-15 01:30N 49°29' W 004°17'2220.4
2018-Sep-15 00:25N 49°41' W 003°48'719.7
2018-Sep-15 00:03N 49°44' W 003°38'119.6
2018-Sep-15 00:00N 49°44' W 003°37'1019.3
2018-Sep-14 23:29N 49°49' W 003°23'818.6
2018-Sep-14 23:03N 49°53' W 003°12'118.3
2018-Sep-14 23:00N 49°53' W 003°11'917.9
2018-Sep-14 22:30N 49°59' W 003°01'817.8
2018-Sep-14 22:03N 50°02' W 002°49'11193.9
2018-Sep-14 22:00N 49°54' W 003°00'1210619.7 270 / 201023.410.8 16.012.417.0
2018-Sep-14 21:59N 50°03' W 002°47'2418.0
2018-Sep-14 20:39N 50°10' W 002°12'318.5
2018-Sep-14 20:31N 50°11' W 002°08'818.8
2018-Sep-14 20:04N 50°14' W 001°56'119.1
2018-Sep-14 20:01N 50°15' W 001°54'1019.6
2018-Sep-14 19:30N 50°19' W 001°41'920.2
2018-Sep-14 19:03N 50°24' W 001°29'120.9
2018-Sep-14 19:00N 50°25' W 001°27'1020.8
2018-Sep-14 18:30N 50°30' W 001°13'  
Track history (hours):
 
Tides and Currents Weather Stations Pressure Air Temp Water Temp Dewpoint Dewpoint Depression Visibility Wind Speed Wind Dir Waves Ship Positions

Queen Elizabeth

Last reported at 2018-Sep-24 18:21 UTC. Time now 2018-Sep-24 21:00 UTC.
Position N 36°32' W 001°42'.

Length 294 m; draft 8 m.

Type: Passenger vessel. MMSI: 310625000.

Date/timePositionNaut miles runAvg speedWind from/ knotsBaromVisibWave heightAir tempDewpointWater temp
2018-Sep-24 18:21N 36°32' W 001°42'618.2
2018-Sep-24 18:02N 36°33' W 001°35'218.5
2018-Sep-24 17:56N 36°34' W 001°33'1218.7
2018-Sep-24 17:16N 36°37' W 001°18'719.1
2018-Sep-24 16:53N 36°39' W 001°09'920.8
2018-Sep-24 16:27N 36°41' W 000°59'820.8
2018-Sep-24 16:03N 36°43' W 000°48'121.2
2018-Sep-24 15:59N 36°43' W 000°47'1121.2
2018-Sep-24 15:29N 36°46' W 000°34'921.1
2018-Sep-24 15:03N 36°48' W 000°23'121.2
2018-Sep-24 15:00N 36°49' W 000°21'2121.6
2018-Sep-24 14:02N 36°54' E 000°04'121.3
2018-Sep-24 14:00N 36°54' E 000°05'1121.2
2018-Sep-24 13:30N 36°57' E 000°17'921.3
2018-Sep-24 13:03N 36°59' E 000°29'120.9
2018-Sep-24 13:00N 36°59' E 000°30'1020.9
2018-Sep-24 12:30N 37°02' E 000°43'1020.7
2018-Sep-24 12:01N 37°04' E 000°55'021.2
2018-Sep-24 12:00N 37°04' E 000°55'1020.9
2018-Sep-24 11:30N 37°07' E 001°08'1021.0
2018-Sep-24 11:03N 37°09' E 001°20'120.7
2018-Sep-24 11:00N 37°10' E 001°21'1120.9
2018-Sep-24 10:30N 37°12' E 001°34'920.9
2018-Sep-24 10:03N 37°14' E 001°45'121.0
2018-Sep-24 10:00N 37°15' E 001°46'1121.0
2018-Sep-24 09:30N 37°17' E 001°59'920.9
2018-Sep-24 09:03N 37°20' E 002°11'120.7
2018-Sep-24 09:00N 37°20' E 002°12'162959.0
2018-Sep-24 09:00N 37°12' E 001°54'2753.8 1021.810.8 25.023.526.0
2018-Sep-24 08:30N 37°23' E 002°25'1020.7
2018-Sep-24 08:01N 37°25' E 002°37'020.8
2018-Sep-24 08:00N 37°25' E 002°37'1020.6
2018-Sep-24 07:30N 37°28' E 002°50'1020.1
2018-Sep-24 07:02N 37°30' E 003°01'019.7
2018-Sep-24 07:00N 37°30' E 003°02'1019.9
2018-Sep-24 06:30N 37°33' E 003°14'1120.1
2018-Sep-24 05:58N 37°35' E 003°27'16718.6
2018-Sep-23 21:00N 38°12' E 006°54'26711.6 1021.010.8 25.020.427.0
2018-Sep-22 22:00N 39°54' E 012°12'8119.9 250 / 41019.110.8 25.022.027.0
2018-Sep-22 17:54N 40°28' E 013°48'820.7
2018-Sep-22 17:30N 40°32' E 013°58'920.3
2018-Sep-22 17:03N 40°36' E 014°09'119.4
2018-Sep-22 17:00N 40°37' E 014°10'917.3
2018-Sep-22 16:30N 40°39' E 014°21'2 3.5
2018-Sep-22 16:03N 40°39' E 014°23'0 0.2
2018-Sep-22 16:00N 40°39' E 014°23'0 0.0
2018-Sep-22 15:30N 40°39' E 014°23'0 0.0
2018-Sep-22 15:03N 40°39' E 014°23'0 0.0
2018-Sep-22 15:00N 40°39' E 014°23'0 0.0
2018-Sep-22 14:30N 40°39' E 014°23'0 0.0
2018-Sep-22 14:00N 40°39' E 014°23'0 0.0
2018-Sep-22 13:30N 40°39' E 014°23'0 0.0
2018-Sep-22 13:03N 40°39' E 014°23'0 0.0
2018-Sep-22 13:00N 40°39' E 014°23'0 0.0
2018-Sep-22 12:30N 40°39' E 014°23'0 0.0
2018-Sep-22 12:03N 40°39' E 014°23'0 0.0
2018-Sep-22 12:00N 40°39' E 014°23'0 0.0
2018-Sep-22 11:30N 40°39' E 014°23'0 0.0
2018-Sep-22 11:03N 40°39' E 014°23'0 0.0
2018-Sep-22 11:00N 40°39' E 014°23'0 0.0
2018-Sep-22 10:30N 40°39' E 014°23'0 0.0
2018-Sep-22 10:03N 40°39' E 014°23'0 0.0
2018-Sep-22 10:00N 40°39' E 014°23'0 0.0
2018-Sep-22 09:30N 40°39' E 014°23'0 0.0
2018-Sep-22 09:03N 40°39' E 014°23'0 0.0
2018-Sep-22 09:00N 40°39' E 014°23'0 0.0
2018-Sep-22 08:30N 40°39' E 014°23'0 0.0
2018-Sep-22 08:03N 40°39' E 014°23'0 0.0
2018-Sep-22 08:00N 40°39' E 014°23'0 0.0
2018-Sep-22 07:30N 40°39' E 014°23'0 0.0
2018-Sep-22 07:01N 40°39' E 014°23'0 0.0
2018-Sep-22 07:00N 40°39' E 014°23'0 0.0
2018-Sep-22 06:30N 40°39' E 014°23'0 0.0
2018-Sep-22 06:03N 40°39' E 014°23'0 0.0
2018-Sep-22 06:00N 40°39' E 014°23'0 0.0
2018-Sep-22 05:30N 40°39' E 014°23'0 0.0
2018-Sep-22 05:03N 40°39' E 014°23'0 1.2
2018-Sep-22 04:59N 40°39' E 014°23'510.0
2018-Sep-22 04:30N 40°39' E 014°16'714.8
2018-Sep-22 04:03N 40°38' E 014°08'114.2
2018-Sep-22 04:00N 40°38' E 014°07'714.4
2018-Sep-22 03:31N 40°38' E 013°57'614.4
2018-Sep-22 03:04N 40°38' E 013°49'114.3
2018-Sep-22 03:00N 40°38' E 013°48'714.4
2018-Sep-22 02:31N 40°38' E 013°38'714.4
2018-Sep-22 02:02N 40°38' E 013°29'015.0
2018-Sep-22 02:00N 40°38' E 013°29'814.8
2018-Sep-22 01:29N 40°41' E 013°19'914.9
2018-Sep-22 00:52N 40°44' E 013°07'615.9
2018-Sep-22 00:30N 40°45' E 013°00'4512.9
2018-Sep-21 21:00N 41°12' E 012°12'77 4.0 1016.810.8 24.021.026.0
2018-Sep-21 01:52N 42°03' E 010°55'720.3
2018-Sep-21 01:30N 42°05' E 010°46'1120.5
2018-Sep-21 00:57N 42°08' E 010°31'920.4
2018-Sep-21 00:30N 42°11' E 010°20'920.5
2018-Sep-21 00:03N 42°14' E 010°08'120.8
2018-Sep-21 00:00N 42°14' E 010°06'1019.6
2018-Sep-20 23:30N 42°21' E 009°57'921.2
2018-Sep-20 23:03N 42°30' E 009°52'121.0
2018-Sep-20 23:00N 42°31' E 009°51'1121.0
2018-Sep-20 22:30N 42°40' E 009°45'920.1
2018-Sep-20 22:03N 42°48' E 009°40'119.7
2018-Sep-20 22:00N 42°49' E 009°40'1019.9
2018-Sep-20 21:30N 42°59' E 009°36'919.0
2018-Sep-20 21:03N 43°07' E 009°32'120.5
2018-Sep-20 21:00N 43°07' E 009°31'83952092.9
2018-Sep-20 21:00N 42°48' W 009°36'8291713.0 1016.510.8 24.021.027.0
2018-Sep-20 20:30N 43°10' E 009°17'921.0
2018-Sep-20 20:03N 43°12' E 009°04'121.2
2018-Sep-20 20:00N 43°12' E 009°03'1020.9
2018-Sep-20 19:30N 43°16' E 008°49'920.7
2018-Sep-20 19:03N 43°19' E 008°37'120.7
2018-Sep-20 19:00N 43°20' E 008°36'1020.8
2018-Sep-20 18:30N 43°23' E 008°23'1020.8
2018-Sep-20 18:03N 43°27' E 008°10'120.9
2018-Sep-20 18:00N 43°27' E 008°09'1020.7
2018-Sep-20 17:30N 43°29' E 007°55'920.3
2018-Sep-20 17:03N 43°32' E 007°43'120.1
2018-Sep-20 17:00N 43°33' E 007°42'1020.0
2018-Sep-20 16:30N 43°36' E 007°29'818.3
2018-Sep-20 16:04N 43°40' E 007°19'110.2
2018-Sep-20 16:00N 43°40' E 007°19'1 1.0
2018-Sep-20 15:30N 43°41' E 007°19'0 0.0
2018-Sep-20 15:03N 43°41' E 007°19'0 0.0
2018-Sep-20 15:00N 43°41' E 007°19'0 0.0
2018-Sep-20 14:30N 43°41' E 007°19'0 0.0
2018-Sep-20 14:01N 43°41' E 007°19'0 0.1
2018-Sep-20 13:29N 43°41' E 007°19'0 0.1
2018-Sep-20 13:04N 43°41' E 007°19'0 0.0
2018-Sep-20 13:01N 43°41' E 007°19'0 0.0
2018-Sep-20 12:30N 43°41' E 007°19'0 0.0
2018-Sep-20 12:04N 43°41' E 007°19'0 0.0
2018-Sep-20 12:01N 43°41' E 007°19'0 0.0
2018-Sep-20 11:30N 43°41' E 007°19'0 0.0
2018-Sep-20 11:04N 43°41' E 007°19'0 0.0
2018-Sep-20 11:01N 43°41' E 007°19'0 0.0
2018-Sep-20 10:31N 43°41' E 007°19'0 0.0
2018-Sep-20 10:03N 43°41' E 007°19'0 0.0
2018-Sep-20 10:00N 43°41' E 007°19'0 0.0
2018-Sep-20 09:31N 43°41' E 007°19'0 0.0
2018-Sep-20 09:04N 43°41' E 007°19'0 0.0
2018-Sep-20 09:01N 43°41' E 007°19'0 0.0
2018-Sep-20 08:31N 43°41' E 007°19'0 0.0
2018-Sep-20 08:04N 43°41' E 007°19'0 0.0
2018-Sep-20 08:01N 43°41' E 007°19'0 0.0
2018-Sep-20 07:31N 43°41' E 007°19'0 0.0
2018-Sep-20 07:04N 43°41' E 007°19'0 0.0
2018-Sep-20 07:00N 43°41' E 007°19'0 0.0
2018-Sep-20 06:30N 43°41' E 007°19'0 0.2
2018-Sep-20 06:04N 43°41' E 007°19'0 0.2
2018-Sep-20 06:01N 43°41' E 007°19'0 0.0
2018-Sep-20 05:30N 43°41' E 007°19'4 8.5
2018-Sep-20 05:04N 43°37' E 007°19'115.5
2018-Sep-20 05:01N 43°36' E 007°18'917.5
2018-Sep-20 04:30N 43°28' E 007°13'919.2
2018-Sep-20 04:03N 43°22' E 007°05'119.3
2018-Sep-20 04:00N 43°21' E 007°05'1019.2
2018-Sep-20 03:31N 43°14' E 006°56'919.3
2018-Sep-20 03:04N 43°07' E 006°48'119.3
2018-Sep-20 03:00N 43°07' E 006°47'1019.3
2018-Sep-20 02:30N 42°60' E 006°38'919.2
2018-Sep-20 02:03N 42°55' E 006°28'119.6
2018-Sep-20 02:01N 42°55' E 006°27'1319.2
2018-Sep-20 01:19N 42°49' E 006°11'519.2
2018-Sep-20 01:03N 42°46' E 006°04'119.1
2018-Sep-20 01:01N 42°46' E 006°04'1019.3
2018-Sep-20 00:30N 42°41' E 005°52'919.4
2018-Sep-20 00:03N 42°37' E 005°42'119.4
2018-Sep-20 00:00N 42°36' E 005°40'1019.4
2018-Sep-19 23:30N 42°32' E 005°29'919.4
2018-Sep-19 23:03N 42°28' E 005°18'119.2
2018-Sep-19 23:00N 42°28' E 005°17'1019.1
2018-Sep-19 22:30N 42°23' E 005°06'919.0
2018-Sep-19 22:02N 42°19' E 004°55'119.0
2018-Sep-19 22:00N 42°19' E 004°54'111618.2
2018-Sep-19 22:00N 42°12' E 004°42'3 5.7 290 / 71020.427.0 23.021.526.0
2018-Sep-19 21:31N 42°15' E 004°42'919.8
2018-Sep-19 21:03N 42°10' E 004°32'119.8
2018-Sep-19 21:01N 42°09' E 004°31'4420.8
2018-Sep-19 18:55N 41°49' E 003°39'5120.4
2018-Sep-19 16:25N 41°25' E 002°39'720.3
2018-Sep-19 16:04N 41°22' E 002°31'120.1
2018-Sep-19 16:01N 41°21' E 002°29'1020.2
2018-Sep-19 15:30N 41°17' E 002°17'612.3
2018-Sep-19 15:03N 41°18' E 002°10'011.4
2018-Sep-19 15:01N 41°19' E 002°10'2 1.6
2018-Sep-19 13:29N 41°21' E 002°10'0 0.0
2018-Sep-19 13:02N 41°21' E 002°10'0 0.0
2018-Sep-19 12:59N 41°21' E 002°10'0 0.0
2018-Sep-19 12:29N 41°21' E 002°10'0 0.0
2018-Sep-19 12:02N 41°21' E 002°10'0 0.0
2018-Sep-19 11:56N 41°21' E 002°10'0 0.0
2018-Sep-19 11:29N 41°21' E 002°10'0 0.0
2018-Sep-19 11:02N 41°21' E 002°10'0 0.0
2018-Sep-19 10:59N 41°21' E 002°10'0 0.0
2018-Sep-19 10:29N 41°21' E 002°10'2 0.3
2018-Sep-19 04:55N 41°19' E 002°10'512.0
2018-Sep-19 04:30N 41°14' E 002°11'715.2
2018-Sep-19 04:03N 41°08' E 002°08'115.2
2018-Sep-19 04:00N 41°08' E 002°07'815.4
2018-Sep-19 03:30N 41°01' E 002°02'715.8
2018-Sep-19 03:03N 40°55' E 001°58'116.0
2018-Sep-19 03:00N 40°54' E 001°57'8714.5
2018-Sep-18 21:00N 39°36' E 001°06'9817.8 1018.410.8 25.022.027.0
2018-Sep-18 15:30N 38°12' E 000°02'816.8
2018-Sep-18 15:02N 38°05' W 000°03'016.7
2018-Sep-18 15:00N 38°05' W 000°04'1816.6
2018-Sep-18 13:57N 37°50' W 000°16'716.4
2018-Sep-18 13:30N 37°44' W 000°21'715.9
2018-Sep-18 13:03N 37°38' W 000°26'116.3
2018-Sep-18 13:00N 37°38' W 000°27'816.5
2018-Sep-18 12:30N 37°31' W 000°34'816.8
2018-Sep-18 12:03N 37°26' W 000°41'116.7
2018-Sep-18 12:00N 37°25' W 000°42'816.4
2018-Sep-18 11:30N 37°20' W 000°49'716.2
2018-Sep-18 11:03N 37°15' W 000°56'116.2
2018-Sep-18 10:59N 37°15' W 000°57'816.3
2018-Sep-18 10:30N 37°09' W 001°05'19815.9
2018-Sep-17 22:02N 36°01' W 004°56'117.9
2018-Sep-17 21:58N 36°01' W 004°57'918.4
2018-Sep-17 21:28N 36°00' W 005°09'818.6
2018-Sep-17 21:03N 35°59' W 005°18'118.4
2018-Sep-17 21:00N 35°59' W 005°19'7457.5
2018-Sep-17 21:00N 35°54' W 005°12'1630.2 090 / 35
2018-Sep-17 20:28N 35°57' W 005°31'51 5.6
2018-Sep-17 11:21N 36°32' W 006°17'0 0.0
2018-Sep-17 11:03N 36°32' W 006°17'0 0.0
2018-Sep-17 11:00N 36°32' W 006°17'0 0.0
2018-Sep-17 10:27N 36°32' W 006°17'0 0.0
2018-Sep-17 09:57N 36°32' W 006°17'0 0.0
2018-Sep-17 09:30N 36°32' W 006°17'0 0.0
2018-Sep-17 09:00N 36°32' W 006°17'0 0.0
2018-Sep-17 08:30N 36°32' W 006°17'0 0.0
2018-Sep-17 08:03N 36°32' W 006°17'0 0.0
2018-Sep-17 08:00N 36°32' W 006°17'0 0.0
2018-Sep-17 07:24N 36°32' W 006°17'0 0.0
2018-Sep-17 07:03N 36°32' W 006°17'0 0.0
2018-Sep-17 07:00N 36°32' W 006°17'0 0.0
2018-Sep-17 06:27N 36°32' W 006°17'0 0.0
2018-Sep-17 06:03N 36°32' W 006°17'0 0.0
2018-Sep-17 06:00N 36°32' W 006°17'0 1.0
2018-Sep-17 05:30N 36°32' W 006°17'2 4.1
2018-Sep-17 05:03N 36°34' W 006°18'1 8.7
2018-Sep-17 05:00N 36°34' W 006°19'713.6
2018-Sep-17 04:30N 36°34' W 006°27'715.5
2018-Sep-17 04:03N 36°34' W 006°36'114.0
2018-Sep-17 04:00N 36°34' W 006°37'6115.1
2018-Sep-16 23:58N 36°32' W 007°53'918.6
2018-Sep-16 23:30N 36°32' W 008°04'818.7
2018-Sep-16 23:03N 36°32' W 008°14'119.1
2018-Sep-16 23:00N 36°32' W 008°15'918.8
2018-Sep-16 22:30N 36°30' W 008°27'818.5
2018-Sep-16 22:03N 36°31' W 008°37'118.4
2018-Sep-16 22:00N 36°31' W 008°38'8599.2
2018-Sep-16 22:00N 36°30' W 008°48'1 2.9 350 / 191017.410.8 21.021.023.0
2018-Sep-16 21:31N 36°31' W 008°49'818.3
2018-Sep-16 21:04N 36°31' W 008°60'118.2
2018-Sep-16 21:01N 36°31' W 009°01'1018.5
2018-Sep-16 20:29N 36°33' W 009°13'917.6
2018-Sep-16 19:57N 36°38' W 009°22'1118.7
2018-Sep-16 19:22N 36°46' W 009°31'618.3
2018-Sep-16 19:04N 36°51' W 009°34'118.5
2018-Sep-16 19:01N 36°52' W 009°35'918.5
2018-Sep-16 18:31N 37°01' W 009°37'919.0
2018-Sep-16 18:04N 37°09' W 009°39'118.9
2018-Sep-16 18:00N 37°10' W 009°40'918.9
2018-Sep-16 17:31N 37°20' W 009°42'818.8
2018-Sep-16 17:03N 37°28' W 009°45'118.8
2018-Sep-16 17:00N 37°29' W 009°45'918.8
2018-Sep-16 16:31N 37°38' W 009°48'918.9
2018-Sep-16 16:03N 37°46' W 009°50'118.8
2018-Sep-16 16:01N 37°47' W 009°50'918.6
2018-Sep-16 15:31N 37°56' W 009°53'818.5
2018-Sep-16 15:04N 38°04' W 009°55'118.9
2018-Sep-16 15:00N 38°05' W 009°55'1019.2
2018-Sep-16 14:31N 38°15' W 009°58'2120.9
2018-Sep-16 13:31N 38°35' W 010°04'920.6
2018-Sep-16 13:04N 38°44' W 010°05'120.4
2018-Sep-16 13:01N 38°45' W 010°05'1020.7
2018-Sep-16 12:30N 38°56' W 010°05'921.1
2018-Sep-16 12:03N 39°05' W 010°05'121.1
2018-Sep-16 12:01N 39°06' W 010°05'1020.8
2018-Sep-16 11:31N 39°17' W 010°05'920.5
2018-Sep-16 11:04N 39°26' W 010°05'120.9
2018-Sep-16 11:00N 39°27' W 010°05'1020.6
2018-Sep-16 10:30N 39°37' W 010°05'920.8
2018-Sep-16 10:03N 39°46' W 010°05'121.0
2018-Sep-16 10:00N 39°48' W 010°05'1020.8
2018-Sep-16 09:31N 39°58' W 010°04'920.7
2018-Sep-16 09:03N 40°07' W 010°04'120.7
2018-Sep-16 09:00N 40°08' W 010°04'1020.6
2018-Sep-16 08:30N 40°19' W 010°04'920.6
2018-Sep-16 08:03N 40°28' W 010°05'121.3
2018-Sep-16 08:00N 40°29' W 010°05'1121.0
2018-Sep-16 07:30N 40°39' W 010°05'920.9
2018-Sep-16 07:03N 40°49' W 010°05'120.7
2018-Sep-16 07:01N 40°50' W 010°05'1020.5
2018-Sep-16 06:31N 41°00' W 010°05'920.8
2018-Sep-16 06:03N 41°09' W 010°05'121.0
2018-Sep-16 06:01N 41°10' W 010°05'1120.7
2018-Sep-16 05:30N 41°21' W 010°04'920.7
2018-Sep-16 05:03N 41°30' W 010°05'619.9
2018-Sep-16 04:45N 41°36' W 010°05'917.1
2018-Sep-16 04:13N 41°45' W 010°05'320.5
2018-Sep-16 04:03N 41°49' W 010°06'221.1
2018-Sep-16 03:58N 41°51' W 010°06'17425.0
2018-Sep-15 21:00N 44°42' W 009°24'7915.7 150 / 81021.610.8 20.013.021.0
2018-Sep-15 16:00N 45°42' W 008°12'12319.4 150 / 81025.610.8 20.013.021.0
2018-Sep-15 09:38N 47°32' W 006°51'820.8
2018-Sep-15 09:16N 47°39' W 006°46'420.5
2018-Sep-15 09:03N 47°43' W 006°42'119.8
2018-Sep-15 09:00N 47°43' W 006°42'2219.9
2018-Sep-15 07:54N 48°03' W 006°28'919.7
2018-Sep-15 07:26N 48°12' W 006°23'819.5
2018-Sep-15 07:03N 48°19' W 006°18'119.1
2018-Sep-15 07:00N 48°20' W 006°18'2619.1
2018-Sep-15 05:38N 48°43' W 005°59'1119.0
2018-Sep-15 05:02N 48°53' W 005°51'419.0
2018-Sep-15 04:50N 48°55' W 005°47'619.2
2018-Sep-15 04:31N 48°59' W 005°39'919.4
2018-Sep-15 04:04N 49°03' W 005°27'119.7
2018-Sep-15 04:00N 49°04' W 005°26'1019.8
2018-Sep-15 03:30N 49°09' W 005°13'920.7
2018-Sep-15 03:03N 49°14' W 005°01'320.6
2018-Sep-15 02:55N 49°15' W 004°57'1020.8
2018-Sep-15 02:26N 49°20' W 004°44'820.9
2018-Sep-15 02:03N 49°24' W 004°33'220.9
2018-Sep-15 01:57N 49°25' W 004°31'920.9
2018-Sep-15 01:30N 49°29' W 004°17'2220.4
2018-Sep-15 00:25N 49°41' W 003°48'719.7
2018-Sep-15 00:03N 49°44' W 003°38'119.6
2018-Sep-15 00:00N 49°44' W 003°37'1019.3
2018-Sep-14 23:29N 49°49' W 003°23'818.6
2018-Sep-14 23:03N 49°53' W 003°12'118.3
2018-Sep-14 23:00N 49°53' W 003°11'917.9
2018-Sep-14 22:30N 49°59' W 003°01'817.8
2018-Sep-14 22:03N 50°02' W 002°49'11193.9
2018-Sep-14 22:00N 49°54' W 003°00'1210619.7 270 / 201023.410.8 16.012.417.0
2018-Sep-14 21:59N 50°03' W 002°47'2418.0
2018-Sep-14 20:39N 50°10' W 002°12'318.5
2018-Sep-14 20:31N 50°11' W 002°08'818.8
2018-Sep-14 20:04N 50°14' W 001°56'119.1
2018-Sep-14 20:01N 50°15' W 001°54'1019.6
2018-Sep-14 19:30N 50°19' W 001°41'920.2
2018-Sep-14 19:03N 50°24' W 001°29'120.9
2018-Sep-14 19:00N 50°25' W 001°27'1020.8
2018-Sep-14 18:30N 50°30' W 001°13'  

Dump ship's entire track history